createdAt,value
2023-03-23T16:00:00.611Z,1.20
2023-03-23T16:02:17.624Z,1.23
2023-03-23T16:04:34.554Z,1.20
2023-03-23T16:06:51.489Z,1.42
2023-03-23T16:09:09.499Z,1.20
2023-03-23T16:11:26.648Z,1.23
2023-03-23T16:13:43.879Z,1.40
2023-03-23T16:16:00.841Z,1.33
2023-03-23T16:18:17.841Z,1.73
2023-03-23T16:20:34.772Z,1.23
2023-03-23T16:22:52.062Z,1.38
2023-03-23T16:25:09.407Z,1.50
2023-03-23T16:27:26.749Z,1.50
2023-03-23T16:30:02.211Z,1.50
2023-03-23T16:32:21.004Z,1.48
2023-03-23T16:34:38.199Z,1.20
2023-03-23T16:36:55.241Z,1.30
2023-03-23T16:39:12.589Z,1.50
2023-03-23T16:41:29.698Z,1.50
2023-03-23T16:43:47.017Z,1.70
2023-03-23T16:46:03.999Z,1.42
2023-03-23T16:48:21.293Z,1.70
2023-03-23T16:50:38.195Z,1.63
2023-03-23T16:52:55.115Z,1.63
2023-03-23T16:55:12.201Z,1.60
2023-03-23T16:57:29.533Z,1.60
2023-03-23T16:59:46.550Z,1.80
2023-03-23T17:02:03.748Z,1.52
2023-03-23T17:04:20.852Z,1.70
2023-03-23T17:06:38.812Z,1.83
2023-03-23T17:08:55.759Z,1.50
2023-03-23T17:11:12.914Z,1.45
2023-03-23T17:13:30.162Z,2.08
2023-03-23T17:15:47.641Z,1.80
2023-03-23T17:18:04.776Z,1.83
2023-03-23T17:20:22.072Z,1.83
2023-03-23T17:22:42.260Z,1.63
2023-03-23T17:24:59.510Z,1.92
2023-03-23T17:27:16.466Z,1.88
2023-03-23T17:29:34.632Z,1.90
2023-03-23T17:31:51.949Z,1.90
2023-03-23T17:34:11.766Z,1.85
2023-03-23T17:36:28.860Z,1.80
2023-03-23T17:38:45.773Z,1.80
2023-03-23T17:41:02.708Z,1.90
2023-03-23T17:43:20.001Z,1.90
2023-03-23T17:45:36.885Z,2.10
2023-03-23T17:47:53.960Z,2.03
2023-03-23T17:50:12.744Z,2.10
2023-03-23T17:52:29.936Z,1.90
2023-03-23T17:54:46.915Z,1.98
2023-03-23T17:57:05.031Z,2.00
2023-03-23T17:59:21.978Z,2.00
2023-03-23T18:01:39.015Z,2.00
2023-03-23T18:03:56.307Z,1.92
2023-03-23T18:06:13.385Z,2.15
2023-03-23T18:08:30.346Z,2.20
2023-03-23T18:10:47.306Z,2.03
2023-03-23T18:13:04.535Z,2.35
2023-03-23T18:15:21.538Z,2.10
2023-03-23T18:17:45.350Z,2.10
2023-03-23T18:20:02.478Z,1.98
2023-03-23T18:22:19.492Z,2.05
2023-03-23T18:24:37.259Z,2.13
2023-03-23T18:26:54.352Z,2.50
2023-03-23T18:29:11.457Z,2.00
2023-03-23T18:31:28.796Z,2.38
2023-03-23T18:33:45.785Z,2.13
2023-03-23T18:36:04.138Z,2.08
2023-03-23T18:38:21.237Z,2.20
2023-03-23T18:40:38.199Z,2.13
2023-03-23T18:42:55.549Z,2.15
2023-03-23T18:45:12.492Z,2.33
2023-03-23T18:47:29.461Z,2.53
2023-03-23T18:49:47.497Z,2.00
2023-03-23T18:52:04.801Z,2.30
2023-03-23T18:54:22.135Z,2.47
2023-03-23T18:56:39.277Z,2.35
2023-03-23T18:58:56.238Z,2.13
2023-03-23T19:01:13.397Z,1.95
2023-03-23T19:03:30.444Z,2.13
2023-03-23T19:05:47.366Z,2.00
2023-03-23T19:08:04.425Z,2.20
2023-03-23T19:10:21.270Z,2.38
2023-03-23T19:12:38.263Z,1.98
2023-03-23T19:14:55.545Z,1.95
2023-03-23T19:17:12.619Z,2.00
2023-03-23T19:19:30.008Z,2.45
2023-03-23T19:21:47.897Z,4.05
2023-03-23T19:24:04.898Z,7.35
2023-03-23T19:26:22.254Z,9.25
2023-03-23T19:30:59.209Z,6.63
2023-03-23T19:33:16.184Z,4.35
2023-03-23T19:35:33.496Z,4.80
2023-03-23T19:37:50.440Z,5.18
2023-03-23T19:40:20.941Z,4.60
2023-03-23T19:42:44.411Z,17.13
2023-03-23T19:45:01.390Z,21.23
2023-03-23T19:47:18.462Z,13.00
2023-03-23T19:49:35.475Z,10.23
2023-03-23T19:52:09.005Z,6.88
2023-03-23T19:54:27.323Z,5.38
2023-03-23T19:56:44.382Z,4.28
2023-03-23T19:59:01.590Z,3.75
2023-03-23T20:01:18.740Z,3.50
2023-03-23T20:03:35.812Z,3.30
2023-03-23T20:05:52.787Z,3.10
2023-03-23T20:08:09.750Z,2.97
2023-03-23T20:10:26.760Z,3.00
2023-03-23T20:12:44.024Z,2.80
2023-03-23T20:15:00.990Z,3.00
2023-03-23T20:17:18.003Z,2.55
2023-03-23T20:19:36.543Z,3.08
2023-03-23T20:21:54.009Z,2.88
2023-03-23T20:24:11.237Z,2.80
2023-03-23T20:26:28.279Z,3.30
2023-03-23T20:28:45.775Z,2.67
2023-03-23T20:31:21.009Z,3.03
2023-03-23T20:33:40.714Z,2.70
2023-03-23T20:35:58.018Z,2.95
2023-03-23T20:38:14.973Z,4.13
2023-03-23T20:40:31.849Z,3.22
2023-03-23T20:42:48.931Z,2.90
2023-03-23T20:45:05.869Z,2.70
2023-03-23T20:47:23.002Z,2.70
2023-03-23T20:49:40.344Z,2.78
2023-03-23T20:51:57.661Z,2.88
2023-03-23T20:54:14.553Z,3.30
2023-03-23T20:56:31.625Z,2.95
2023-03-23T20:58:48.540Z,3.15
2023-03-23T21:01:05.540Z,3.22
2023-03-23T21:03:22.425Z,3.10
2023-03-23T21:05:39.527Z,3.30
2023-03-23T21:07:56.864Z,3.03
2023-03-23T21:10:13.897Z,2.75
2023-03-23T21:12:31.032Z,2.78
2023-03-23T21:14:47.975Z,3.38
2023-03-23T21:17:04.920Z,3.00
2023-03-23T21:19:22.276Z,3.22
2023-03-23T21:21:39.843Z,3.53
2023-03-23T21:24:13.135Z,3.38
2023-03-23T21:26:30.429Z,2.95
2023-03-23T21:28:47.644Z,3.72
2023-03-23T21:31:04.871Z,3.65
2023-03-23T21:33:21.804Z,4.07
2023-03-23T21:35:39.140Z,4.30
2023-03-23T21:37:56.522Z,4.20
2023-03-23T21:40:14.460Z,4.78
2023-03-23T21:42:31.822Z,4.97
2023-03-23T21:44:49.129Z,4.63
2023-03-23T21:47:06.064Z,4.50
2023-03-23T21:49:23.003Z,3.90
2023-03-23T21:51:40.430Z,4.07
2023-03-23T21:53:57.756Z,3.60
2023-03-23T21:56:15.800Z,4.72
2023-03-23T21:58:33.007Z,4.88
2023-03-23T22:00:50.305Z,4.57
2023-03-23T22:03:07.514Z,5.00
2023-03-23T22:05:24.482Z,5.30
2023-03-23T22:07:41.377Z,4.47
2023-03-23T22:09:58.732Z,4.53
2023-03-23T22:12:15.810Z,4.70
2023-03-23T22:14:33.002Z,4.78
2023-03-23T22:16:50.057Z,4.00
2023-03-23T22:19:07.304Z,4.30
2023-03-23T22:21:25.342Z,4.60
2023-03-23T22:23:42.400Z,4.53
2023-03-23T22:25:59.406Z,3.92
2023-03-23T22:28:16.374Z,4.22
2023-03-23T22:30:33.309Z,4.00
2023-03-23T22:32:50.437Z,4.72
2023-03-23T22:35:07.514Z,4.55
2023-03-23T22:37:24.714Z,3.97
2023-03-23T22:39:41.974Z,4.13
2023-03-23T22:41:59.193Z,3.97
2023-03-23T22:44:16.150Z,4.30
2023-03-23T22:46:33.506Z,4.30
2023-03-23T22:48:50.838Z,3.75
2023-03-23T22:51:07.736Z,4.50
2023-03-23T22:53:24.720Z,4.20
2023-03-23T22:55:41.918Z,5.00
2023-03-23T22:57:58.993Z,5.10
2023-03-23T23:00:16.075Z,4.72
2023-03-23T23:02:33.064Z,4.20
2023-03-23T23:04:50.042Z,4.25
2023-03-23T23:07:12.800Z,4.38
2023-03-23T23:09:30.604Z,5.30
2023-03-23T23:11:47.550Z,4.70
2023-03-23T23:14:04.733Z,4.93
2023-03-23T23:16:21.752Z,5.10
2023-03-23T23:18:39.059Z,4.85
2023-03-23T23:20:55.983Z,4.90
2023-03-23T23:23:12.946Z,4.70
2023-03-23T23:25:30.242Z,4.70
2023-03-23T23:27:47.358Z,5.43
2023-03-23T23:30:04.693Z,5.70
2023-03-23T23:32:21.793Z,5.07
2023-03-23T23:34:39.060Z,4.30
2023-03-23T23:36:56.472Z,4.90
2023-03-23T23:39:13.722Z,5.05
2023-03-23T23:41:30.655Z,4.82
2023-03-23T23:43:47.621Z,5.45
2023-03-23T23:46:04.908Z,5.20
2023-03-23T23:48:22.795Z,5.60
2023-03-23T23:50:40.092Z,5.93
2023-03-23T23:52:57.066Z,5.25
2023-03-23T23:55:15.268Z,5.05
2023-03-23T23:57:32.343Z,5.45
2023-03-23T23:59:49.679Z,5.05
